7N1 weather

Corning Painted Post Airport
Corning, New York, United States

Public forecast

Using degrees Fahrenheit for public forecast. Weather courtesy of forecast.io.

METAR (pilot weather report)

Closest report is Elmira Corning Regional Airport, 9.9 nm (18.3 km) E. Retrieved 2019/04/23 16:53 UTC (50 minutes ago):

KELM 231653Z 25010G16KT 10SM CLR 24/08 A2988 RMK AO2 SLP116 T02440083

TAF (pilot weather forecast)

Closest forecast is Elmira Corning Regional Airport, 9.9 nm (18.3 km) E. Retrieved 2019/04/23 12:42 UTC (5 hours ago):

TAF KELM 231138Z 2312/2412 00000KT 4SM BR SCT004 TEMPO 2312/2313 1/4SM FG BKN002 FM231400 VRB03KT P6SM SCT100 FM231900 21012G22KT P6SM BKN100 FM232300 24012G22KT 5SM -SHRA OVC035 FM240400 27010G20KT P6SM BKN025